createdAt,value
2019-03-30T15:52:55.307Z,30.60
2019-03-30T15:55:26.580Z,29.00
2019-03-30T15:57:57.925Z,29.60
2019-03-30T16:00:29.124Z,29.77
2019-03-30T16:03:00.475Z,30.20
2019-03-30T16:05:31.763Z,30.43
2019-03-30T16:08:04.753Z,33.13
2019-03-30T16:10:35.850Z,33.63
2019-03-30T16:13:07.177Z,34.33
2019-03-30T16:15:38.377Z,32.33
2019-03-30T16:18:09.709Z,33.60
2019-03-30T16:20:40.957Z,34.53
2019-03-30T16:23:12.218Z,34.97
2019-03-30T16:25:45.874Z,38.67
2019-03-30T16:28:17.126Z,40.88
2019-03-30T16:30:49.671Z,42.15
2019-03-30T16:33:20.909Z,44.63
2019-03-30T16:35:52.313Z,44.60
2019-03-30T16:38:23.649Z,44.90
2019-03-30T16:40:54.998Z,47.20
2019-03-30T16:43:26.259Z,45.75
2019-03-30T16:45:58.949Z,46.05
2019-03-30T16:48:30.320Z,44.90
2019-03-30T16:51:01.539Z,48.33
2019-03-30T16:53:32.776Z,48.42
2019-03-30T16:56:04.459Z,50.65
2019-03-30T16:58:35.793Z,51.80
2019-03-30T17:01:08.524Z,50.20
2019-03-30T17:03:40.502Z,45.78
2019-03-30T17:06:11.771Z,41.83
2019-03-30T17:08:42.982Z,38.75
2019-03-30T17:11:14.326Z,37.25
2019-03-30T17:13:45.667Z,37.83
2019-03-30T17:16:18.010Z,39.25
2019-03-30T17:18:49.373Z,38.45
2019-03-30T17:21:20.709Z,37.75
2019-03-30T17:23:52.147Z,36.88
2019-03-30T17:26:23.579Z,37.30
2019-03-30T17:28:57.279Z,35.95
2019-03-30T17:31:30.082Z,35.43
2019-03-30T17:34:01.257Z,35.10
2019-03-30T17:36:33.561Z,35.60
2019-03-30T17:39:07.288Z,34.83
2019-03-30T17:41:38.575Z,35.20
2019-03-30T17:44:11.333Z,34.38
2019-03-30T17:46:42.707Z,35.38
2019-03-30T17:49:14.977Z,34.75
2019-03-30T17:51:48.009Z,35.13
2019-03-30T17:54:20.897Z,35.03
2019-03-30T17:56:52.172Z,35.75
2019-03-30T17:59:23.936Z,35.88
2019-03-30T18:01:55.263Z,34.67
2019-03-30T18:04:26.519Z,36.53
2019-03-30T18:06:57.728Z,36.08
2019-03-30T18:09:29.148Z,37.38
2019-03-30T18:12:00.523Z,37.67
2019-03-30T18:14:31.896Z,37.48
2019-03-30T18:17:03.241Z,37.78
2019-03-30T18:19:34.529Z,39.65
2019-03-30T18:22:05.827Z,42.80
2019-03-30T18:24:37.239Z,42.73
2019-03-30T18:27:09.539Z,38.48
2019-03-30T18:29:44.196Z,37.63
2019-03-30T18:32:15.523Z,39.13
2019-03-30T18:34:46.763Z,44.35
2019-03-30T18:37:18.110Z,46.00
2019-03-30T18:39:49.419Z,54.48
2019-03-30T18:42:20.840Z,66.00
2019-03-30T18:44:54.300Z,77.37
2019-03-30T18:47:25.630Z,75.00
2019-03-30T18:49:56.946Z,79.82
2019-03-30T18:52:28.286Z,76.25
2019-03-30T18:54:59.664Z,102.92
2019-03-30T18:57:32.921Z,96.28
2019-03-30T19:00:07.354Z,91.42
2019-03-30T19:02:39.498Z,87.37
2019-03-30T19:05:10.907Z,86.02
2019-03-30T19:07:43.726Z,78.17
2019-03-30T19:10:15.628Z,75.90
2019-03-30T19:12:47.008Z,65.78
2019-03-30T19:15:18.264Z,62.43
2019-03-30T19:17:49.536Z,73.55
2019-03-30T19:20:21.730Z,66.17
2019-03-30T19:22:53.070Z,71.90
2019-03-30T19:25:24.430Z,64.80
2019-03-30T19:27:55.774Z,61.13
2019-03-30T19:30:27.069Z,64.50
2019-03-30T19:32:58.324Z,60.25
2019-03-30T19:35:30.935Z,59.73
2019-03-30T19:38:03.907Z,60.43
2019-03-30T19:40:35.309Z,61.50
2019-03-30T19:43:06.486Z,65.72
2019-03-30T19:45:37.760Z,64.17
2019-03-30T19:48:09.119Z,75.25
2019-03-30T19:50:40.399Z,79.77
2019-03-30T19:53:13.465Z,102.45
2019-03-30T19:55:44.905Z,113.08
2019-03-30T19:58:16.331Z,90.65
2019-03-30T20:00:47.727Z,105.05
2019-03-30T20:03:20.153Z,135.82
2019-03-30T20:05:51.520Z,118.93
2019-03-30T20:08:22.971Z,133.70
2019-03-30T20:10:54.353Z,122.85
2019-03-30T20:13:25.858Z,127.00
